createdAt,value
2023-03-13T00:01:40.771Z,96569.59
2023-03-13T00:04:09.989Z,96576.16
2023-03-13T00:06:42.551Z,96563.00
2023-03-13T00:09:14.020Z,96567.59
2023-03-13T00:11:42.731Z,96561.19
2023-03-13T00:14:12.101Z,96565.25
2023-03-13T00:16:40.715Z,96562.06
2023-03-13T00:19:10.438Z,96557.81
2023-03-13T00:21:41.319Z,96558.59
2023-03-13T00:24:13.208Z,96540.94
2023-03-13T00:26:41.929Z,96549.72
2023-03-13T00:29:10.295Z,96542.69
2023-03-13T00:31:39.056Z,96542.47
2023-03-13T00:34:07.527Z,96554.16
2023-03-13T00:36:39.082Z,96541.22
2023-03-13T00:39:08.110Z,96535.94
2023-03-13T00:41:38.835Z,96525.72
2023-03-13T00:44:08.339Z,96513.06
2023-03-13T00:46:38.066Z,96511.78
2023-03-13T00:49:07.221Z,96512.44
2023-03-13T00:51:39.009Z,96517.59
2023-03-13T00:54:10.437Z,96515.25
2023-03-13T00:56:38.865Z,96518.50
2023-03-13T00:59:07.415Z,96514.16
2023-03-13T01:01:38.050Z,96524.19
2023-03-13T01:04:10.193Z,96517.44
2023-03-13T01:06:42.994Z,96501.31
2023-03-13T01:09:16.169Z,96512.47
2023-03-13T01:11:47.006Z,96500.63
2023-03-13T01:14:18.936Z,96497.63
2023-03-13T01:16:48.200Z,96502.25
2023-03-13T01:19:17.992Z,96503.25
2023-03-13T01:21:48.101Z,96505.97
2023-03-13T01:24:19.289Z,96507.88
2023-03-13T01:26:48.163Z,96507.28
2023-03-13T01:29:17.950Z,96504.28
2023-03-13T01:31:46.399Z,96489.25
2023-03-13T01:34:14.940Z,96488.81
2023-03-13T01:36:43.817Z,96487.41
2023-03-13T01:39:12.557Z,96482.56
2023-03-13T01:41:42.412Z,96479.88
2023-03-13T01:44:24.203Z,96476.66
2023-03-13T01:46:54.449Z,96472.47
2023-03-13T01:49:28.128Z,96477.66
2023-03-13T01:52:23.484Z,96477.44
2023-03-13T01:55:17.126Z,96472.19
2023-03-13T01:57:55.957Z,96469.53
2023-03-13T02:00:31.070Z,96458.06
2023-03-13T02:03:08.163Z,96455.44
2023-03-13T02:05:38.497Z,96458.69
2023-03-13T02:08:15.873Z,96457.00
2023-03-13T02:10:52.750Z,96461.84
2023-03-13T02:13:24.530Z,96465.28
2023-03-13T02:15:53.655Z,96459.00
2023-03-13T02:18:22.744Z,96447.69
2023-03-13T02:20:58.091Z,96450.41
2023-03-13T02:23:36.961Z,96444.13
2023-03-13T02:26:10.275Z,96441.94
2023-03-13T02:28:40.893Z,96441.94
2023-03-13T02:31:14.640Z,96448.38
2023-03-13T02:33:45.241Z,96438.59
2023-03-13T02:36:19.701Z,96437.22
2023-03-13T02:38:56.197Z,96434.06
2023-03-13T02:41:28.778Z,96433.72
2023-03-13T02:43:59.142Z,96439.78
2023-03-13T02:46:27.814Z,96436.34
2023-03-13T02:48:58.044Z,96439.50
2023-03-13T02:51:37.528Z,96433.59
2023-03-13T02:54:10.036Z,96428.31
2023-03-13T02:56:48.368Z,96423.63
2023-03-13T02:59:16.922Z,96431.44
2023-03-13T03:01:47.493Z,96435.75
2023-03-13T03:04:15.899Z,96433.56
2023-03-13T03:06:47.566Z,96437.88
2023-03-13T03:09:16.230Z,96426.63
2023-03-13T03:11:46.579Z,96419.69
2023-03-13T03:14:18.286Z,96428.31
2023-03-13T03:16:49.031Z,96423.41
2023-03-13T03:19:17.740Z,96426.31
2023-03-13T03:21:46.253Z,96424.44
2023-03-13T03:24:14.882Z,96425.44
2023-03-13T03:26:43.186Z,96415.13
2023-03-13T03:29:20.516Z,96416.97
2023-03-13T03:31:52.137Z,96415.59
2023-03-13T03:34:20.572Z,96409.50
2023-03-13T03:36:53.267Z,96402.91
2023-03-13T03:39:21.891Z,96403.22
2023-03-13T03:41:50.815Z,96402.09
2023-03-13T03:44:20.876Z,96390.19
2023-03-13T03:46:57.853Z,96386.09
2023-03-13T03:49:28.535Z,96391.41
2023-03-13T03:51:56.988Z,96387.59
2023-03-13T03:54:31.342Z,96376.78
2023-03-13T03:57:01.095Z,96369.47
2023-03-13T03:59:31.104Z,96372.19
2023-03-13T04:02:13.876Z,96379.72
2023-03-13T04:04:43.804Z,96368.09
2023-03-13T04:07:17.207Z,96368.09
2023-03-13T04:09:46.006Z,96360.88
2023-03-13T04:12:22.593Z,96359.84
2023-03-13T04:14:55.004Z,96352.44
2023-03-13T04:17:23.367Z,96348.44
2023-03-13T04:19:51.954Z,96338.91
2023-03-13T04:22:20.322Z,96347.25
2023-03-13T04:24:52.777Z,96349.94
2023-03-13T04:27:23.453Z,96343.81
2023-03-13T04:29:54.353Z,96345.44
2023-03-13T04:32:38.245Z,96338.84
2023-03-13T04:35:33.595Z,96334.25
2023-03-13T04:38:25.048Z,96326.91
2023-03-13T04:41:16.796Z,96328.81
2023-03-13T04:43:53.232Z,96325.72
2023-03-13T04:46:49.845Z,96309.84
2023-03-13T04:49:32.240Z,96309.56
2023-03-13T04:52:10.619Z,96307.78
2023-03-13T04:55:11.380Z,96308.09
2023-03-13T04:58:01.333Z,96303.56
2023-03-13T05:00:50.690Z,96310.56
2023-03-13T05:03:33.327Z,96297.84
2023-03-13T05:06:10.489Z,96298.72
2023-03-13T05:09:17.549Z,96294.09
2023-03-13T05:11:58.416Z,96291.88
2023-03-13T05:14:55.003Z,96282.47
2023-03-13T05:17:44.395Z,96285.19
2023-03-13T05:20:25.007Z,96285.44
2023-03-13T05:23:10.434Z,96284.97
2023-03-13T05:25:57.225Z,96282.25
2023-03-13T05:28:43.082Z,96274.13
2023-03-13T05:31:17.355Z,96276.84
2023-03-13T05:34:02.608Z,96259.19
2023-03-13T05:36:50.800Z,96253.97
2023-03-13T05:39:36.872Z,96257.03
2023-03-13T05:42:28.185Z,96253.91
2023-03-13T05:45:23.018Z,96267.16
2023-03-13T05:48:20.407Z,96267.34
2023-03-13T05:51:18.013Z,96275.06
2023-03-13T05:54:17.219Z,96273.16
2023-03-13T05:57:06.133Z,96254.88
2023-03-13T05:59:53.267Z,96252.44
2023-03-13T06:02:40.964Z,96273.34
2023-03-13T06:05:12.751Z,96274.03
2023-03-13T06:07:41.173Z,96265.16
2023-03-13T06:10:13.549Z,96250.03
2023-03-13T06:12:42.540Z,96245.75
2023-03-13T06:15:13.807Z,96238.69
2023-03-13T06:18:01.524Z,96232.97
2023-03-13T06:20:30.015Z,96226.44
2023-03-13T06:22:58.772Z,96236.97
2023-03-13T06:25:29.108Z,96232.66
2023-03-13T06:27:57.507Z,96227.09
2023-03-13T06:30:26.440Z,96232.69
2023-03-13T06:32:54.946Z,96237.69
2023-03-13T06:35:23.444Z,96231.00
2023-03-13T06:37:51.923Z,96235.50
2023-03-13T06:40:20.725Z,96232.34
2023-03-13T06:42:51.685Z,96228.03
2023-03-13T06:45:20.264Z,96234.41
2023-03-13T06:47:52.734Z,96230.69
2023-03-13T06:50:21.296Z,96229.91
2023-03-13T06:52:49.879Z,96227.53
2023-03-13T06:55:18.470Z,96227.91
2023-03-13T06:57:52.394Z,96218.00
2023-03-13T07:00:22.191Z,96220.78
2023-03-13T07:02:51.707Z,96212.66
2023-03-13T07:05:20.373Z,96212.97
2023-03-13T07:07:52.033Z,96202.47
2023-03-13T07:10:20.960Z,96198.00
2023-03-13T07:12:49.899Z,96204.56
2023-03-13T07:15:20.150Z,96198.81
2023-03-13T07:17:48.626Z,96198.81
2023-03-13T07:20:17.913Z,96194.03
2023-03-13T07:22:51.950Z,96185.44
2023-03-13T07:25:20.640Z,96190.69
2023-03-13T07:27:53.600Z,96188.63
2023-03-13T07:30:23.757Z,96192.78
2023-03-13T07:32:52.273Z,96190.09
2023-03-13T07:35:21.137Z,96191.69
2023-03-13T07:37:49.695Z,96192.31
2023-03-13T07:40:18.690Z,96184.78
2023-03-13T07:42:47.170Z,96189.88
2023-03-13T07:45:15.661Z,96189.31
2023-03-13T07:47:49.042Z,96188.31
2023-03-13T07:50:18.385Z,96191.44
2023-03-13T07:52:47.012Z,96191.94
2023-03-13T07:55:15.498Z,96195.50
2023-03-13T07:57:43.956Z,96189.53
2023-03-13T08:00:16.664Z,96190.88
2023-03-13T08:02:47.001Z,96188.97
2023-03-13T08:05:15.881Z,96192.25
2023-03-13T08:07:46.110Z,96193.25
2023-03-13T08:10:14.607Z,96192.78
2023-03-13T08:12:43.027Z,96198.69
2023-03-13T08:15:12.158Z,96201.31
2023-03-13T08:17:40.631Z,96197.00
2023-03-13T08:20:12.816Z,96199.41
2023-03-13T08:22:41.300Z,96192.44
2023-03-13T08:25:10.284Z,96198.88
2023-03-13T08:27:38.964Z,96198.56
2023-03-13T08:30:09.702Z,96196.84
2023-03-13T08:32:38.610Z,96192.22
2023-03-13T08:35:08.417Z,96180.38
2023-03-13T08:37:38.319Z,96187.22
2023-03-13T08:40:11.475Z,96174.25
2023-03-13T08:42:40.707Z,96170.78
2023-03-13T08:45:10.676Z,96171.25
2023-03-13T08:47:39.109Z,96174.47
2023-03-13T08:50:08.822Z,96181.34
2023-03-13T08:52:38.633Z,96175.19
2023-03-13T08:55:09.265Z,96167.78
2023-03-13T08:57:37.746Z,96164.84
2023-03-13T09:00:08.100Z,96162.25
2023-03-13T09:02:36.639Z,96164.56
2023-03-13T09:05:06.092Z,96169.78
2023-03-13T09:07:34.850Z,96152.50
2023-03-13T09:10:05.606Z,96154.25
2023-03-13T09:12:34.304Z,96156.81
2023-03-13T09:15:06.686Z,96153.00
2023-03-13T09:17:35.441Z,96143.66
2023-03-13T09:20:04.770Z,96134.44
2023-03-13T09:22:36.797Z,96134.19
2023-03-13T09:25:07.851Z,96131.25
2023-03-13T09:27:36.334Z,96122.50
2023-03-13T09:30:05.431Z,96126.97
2023-03-13T09:32:34.205Z,96125.69
2023-03-13T09:35:02.679Z,96126.81
2023-03-13T09:37:31.315Z,96135.97
2023-03-13T09:40:01.091Z,96133.75
2023-03-13T09:42:45.142Z,96125.78
2023-03-13T09:45:20.940Z,96127.59
2023-03-13T09:47:56.360Z,96125.81
2023-03-13T09:50:31.256Z,96123.31
2023-03-13T09:53:12.952Z,96110.00
2023-03-13T09:55:46.067Z,96112.28
2023-03-13T09:58:23.014Z,96116.25
2023-03-13T10:00:58.622Z,96112.13
2023-03-13T10:03:33.188Z,96108.44
2023-03-13T10:06:07.961Z,96112.63
2023-03-13T10:08:38.174Z,96103.25
2023-03-13T10:11:12.974Z,96099.91
2023-03-13T10:13:52.501Z,96102.00
2023-03-13T10:16:33.485Z,96104.63
2023-03-13T10:19:15.887Z,96097.69
2023-03-13T10:21:50.629Z,96098.09
2023-03-13T10:24:35.274Z,96094.25
2023-03-13T10:27:03.923Z,96100.28
2023-03-13T10:29:33.703Z,96093.63
2023-03-13T10:32:04.951Z,96106.78
2023-03-13T10:34:54.205Z,96105.31
2023-03-13T10:37:26.812Z,96099.16
2023-03-13T10:39:56.779Z,96099.22
2023-03-13T10:42:33.553Z,96089.78
2023-03-13T10:45:07.601Z,96094.78
2023-03-13T10:47:37.378Z,96094.41
2023-03-13T10:50:06.801Z,96089.25
2023-03-13T10:52:44.104Z,96086.19
2023-03-13T10:55:15.216Z,96074.13
2023-03-13T10:58:00.391Z,96080.19
2023-03-13T11:00:38.731Z,96075.72
2023-03-13T11:03:17.892Z,96081.63
2023-03-13T11:05:57.928Z,96085.44
2023-03-13T11:08:29.141Z,96082.69
2023-03-13T11:11:02.090Z,96074.34
2023-03-13T11:13:42.840Z,96083.13
2023-03-13T11:16:21.622Z,96078.53
2023-03-13T11:19:17.735Z,96070.63
2023-03-13T11:22:13.156Z,96066.47
2023-03-13T11:24:51.151Z,96052.59
2023-03-13T11:27:31.758Z,96047.59
2023-03-13T11:30:17.753Z,96058.09
2023-03-13T11:32:55.993Z,96047.94
2023-03-13T11:35:43.944Z,96049.53
2023-03-13T11:38:21.848Z,96042.81
2023-03-13T11:41:02.423Z,96037.34
2023-03-13T11:43:58.044Z,96050.34
2023-03-13T11:46:46.893Z,96056.13
2023-03-13T11:49:44.991Z,96041.81
2023-03-13T11:52:48.803Z,96042.31
2023-03-13T11:55:34.470Z,96042.44
2023-03-13T11:58:37.048Z,96031.44
2023-03-13T12:01:13.375Z,96023.88
2023-03-13T12:03:55.616Z,96013.88
2023-03-13T12:06:33.115Z,96010.28
2023-03-13T12:09:12.161Z,96008.75
2023-03-13T12:11:59.591Z,96013.19
2023-03-13T12:14:38.108Z,95995.78
2023-03-13T12:17:13.659Z,95992.06
2023-03-13T12:19:53.920Z,95980.78
2023-03-13T12:22:34.039Z,95981.13
2023-03-13T12:25:07.572Z,95981.78
2023-03-13T12:27:43.813Z,95966.03
2023-03-13T12:30:29.031Z,95972.41
2023-03-13T12:33:09.890Z,95967.31
2023-03-13T12:35:43.522Z,95976.31
2023-03-13T12:38:24.082Z,95980.16
2023-03-13T12:41:06.327Z,95962.78
2023-03-13T12:43:40.758Z,95964.56
2023-03-13T12:46:36.038Z,95953.34
2023-03-13T12:50:00.527Z,95962.59
2023-03-13T12:52:59.162Z,95957.06
2023-03-13T12:56:20.871Z,95940.84
2023-03-13T12:58:54.498Z,95939.69
2023-03-13T13:01:34.704Z,95924.69
2023-03-13T13:04:08.179Z,95919.53
2023-03-13T13:06:59.473Z,95904.78
2023-03-13T13:09:32.943Z,95904.56
2023-03-13T13:12:20.031Z,95890.38
2023-03-13T13:15:06.062Z,95890.78
2023-03-13T13:17:54.934Z,95877.34
2023-03-13T13:20:40.862Z,95862.34
2023-03-13T13:23:39.312Z,95849.28
2023-03-13T13:26:49.741Z,95852.47
2023-03-13T13:29:59.860Z,95840.25
2023-03-13T13:32:50.152Z,95848.16
2023-03-13T13:35:37.007Z,95846.00
2023-03-13T13:38:36.961Z,95837.94
2023-03-13T13:41:28.297Z,95820.41
2023-03-13T13:44:30.944Z,95820.28
2023-03-13T13:47:02.270Z,95828.00
2023-03-13T13:49:55.332Z,95832.84
2023-03-13T13:52:42.924Z,95839.25
2023-03-13T13:55:45.367Z,95829.72
2023-03-13T13:58:20.491Z,95823.06
2023-03-13T14:00:57.314Z,95813.69
2023-03-13T14:03:30.663Z,95812.41
2023-03-13T14:06:06.198Z,95802.16
2023-03-13T14:08:40.263Z,95798.25
2023-03-13T14:11:26.569Z,95786.34
2023-03-13T14:14:19.695Z,95776.91
2023-03-13T14:16:51.225Z,95767.00
2023-03-13T14:22:09.164Z,95746.44
2023-03-13T14:24:39.301Z,95741.47
2023-03-13T14:27:18.352Z,95724.78
2023-03-13T14:30:02.256Z,95732.25
2023-03-13T14:32:30.988Z,95730.91
2023-03-13T14:35:00.900Z,95710.91
2023-03-13T14:37:38.069Z,95712.63
2023-03-13T14:40:20.370Z,95702.66
2023-03-13T14:42:52.227Z,95697.81
2023-03-13T14:45:29.232Z,95691.84
2023-03-13T14:48:04.059Z,95684.91
2023-03-13T14:50:36.529Z,95676.94
2023-03-13T14:53:14.129Z,95670.53
2023-03-13T14:55:42.695Z,95668.44
2023-03-13T14:58:29.714Z,95656.88
2023-03-13T15:01:00.063Z,95663.22
2023-03-13T15:03:34.064Z,95655.03
2023-03-13T15:06:25.616Z,95652.59
2023-03-13T15:09:17.238Z,95642.97
2023-03-13T15:12:00.420Z,95630.91
2023-03-13T15:14:41.087Z,95626.09
2023-03-13T15:17:22.493Z,95617.16
2023-03-13T15:19:54.192Z,95605.16
2023-03-13T15:22:30.484Z,95597.16
2023-03-13T15:25:07.873Z,95597.16
2023-03-13T15:27:36.884Z,95590.84
2023-03-13T15:30:07.046Z,95597.41
2023-03-13T15:32:39.346Z,95580.34
2023-03-13T15:35:28.819Z,95580.50
2023-03-13T15:38:00.904Z,95561.56
2023-03-13T15:40:30.898Z,95558.69
2023-03-13T15:43:00.370Z,95558.16
2023-03-13T15:45:29.479Z,95545.25
2023-03-13T15:47:58.222Z,95545.94
2023-03-13T15:50:30.864Z,95546.19
2023-03-13T15:53:01.855Z,95539.63
2023-03-13T15:55:31.545Z,95532.22
2023-03-13T15:58:00.002Z,95530.66
2023-03-13T16:00:28.910Z,95515.53
2023-03-13T16:02:57.370Z,95517.00
2023-03-13T16:05:26.288Z,95513.84
2023-03-13T16:07:55.315Z,95507.88
2023-03-13T16:10:29.185Z,95499.50
2023-03-13T16:12:57.617Z,95481.06
2023-03-13T16:15:26.004Z,95475.63
2023-03-13T16:17:54.539Z,95471.81
2023-03-13T16:20:26.580Z,95454.53
2023-03-13T16:22:55.669Z,95457.22
2023-03-13T16:25:26.617Z,95452.00
2023-03-13T16:27:56.412Z,95444.16
2023-03-13T16:30:27.987Z,95436.69
2023-03-13T16:32:56.411Z,95430.88
2023-03-13T16:35:26.759Z,95427.81
2023-03-13T16:37:56.764Z,95416.75
2023-03-13T16:40:31.442Z,95428.16
2023-03-13T16:43:00.662Z,95415.59
2023-03-13T16:45:29.551Z,95421.81
2023-03-13T16:48:01.104Z,95420.25
2023-03-13T16:50:36.432Z,95409.22
2023-03-13T16:53:05.172Z,95408.78
2023-03-13T16:55:36.991Z,95412.13
2023-03-13T16:58:05.857Z,95420.59
2023-03-13T17:00:34.813Z,95419.72
2023-03-13T17:03:03.289Z,95404.75
2023-03-13T17:05:32.026Z,95409.44
2023-03-13T17:08:04.600Z,95405.09
2023-03-13T17:10:35.948Z,95399.47
2023-03-13T17:13:05.555Z,95388.28
2023-03-13T17:15:34.513Z,95381.81
2023-03-13T17:18:03.231Z,95375.75
2023-03-13T17:20:31.931Z,95369.97
2023-03-13T17:23:01.151Z,95352.78
2023-03-13T17:25:30.083Z,95352.66
2023-03-13T17:28:00.287Z,95352.78
2023-03-13T17:30:32.293Z,95352.25
2023-03-13T17:33:01.036Z,95346.25
2023-03-13T17:35:29.687Z,95351.66
2023-03-13T17:37:58.147Z,95351.00
2023-03-13T17:40:31.272Z,95348.16
2023-03-13T17:43:01.071Z,95336.31
2023-03-13T17:45:30.928Z,95323.72
2023-03-13T17:47:59.358Z,95336.16
2023-03-13T17:50:29.559Z,95332.91
2023-03-13T17:52:58.145Z,95319.88
2023-03-13T17:55:26.626Z,95311.50
2023-03-13T17:57:55.189Z,95318.19
2023-03-13T18:00:31.925Z,95315.03
2023-03-13T18:03:01.993Z,95315.91
2023-03-13T18:05:30.589Z,95309.16
2023-03-13T18:07:59.406Z,95304.00
2023-03-13T18:10:31.223Z,95305.78
2023-03-13T18:13:00.053Z,95297.75
2023-03-13T18:15:30.578Z,95291.16
2023-03-13T18:17:59.088Z,95288.84
2023-03-13T18:20:31.832Z,95286.09
2023-03-13T18:23:00.877Z,95276.56
2023-03-13T18:25:30.684Z,95278.03
2023-03-13T18:27:59.556Z,95259.88
2023-03-13T18:30:30.222Z,95249.53
2023-03-13T18:32:58.772Z,95249.75
2023-03-13T18:35:27.600Z,95240.13
2023-03-13T18:37:56.346Z,95240.59
2023-03-13T18:40:29.423Z,95232.19
2023-03-13T18:42:58.609Z,95230.00
2023-03-13T18:45:28.257Z,95218.50
2023-03-13T18:47:58.746Z,95213.13
2023-03-13T18:50:30.739Z,95211.44
2023-03-13T18:53:01.263Z,95216.72
2023-03-13T18:55:35.860Z,95209.13
2023-03-13T18:58:04.525Z,95209.56
2023-03-13T19:00:35.001Z,95211.63
2023-03-13T19:03:04.967Z,95211.38
2023-03-13T19:05:33.568Z,95187.56
2023-03-13T19:08:02.157Z,95190.75
2023-03-13T19:10:32.590Z,95193.47
2023-03-13T19:13:01.237Z,95188.16
2023-03-13T19:15:32.951Z,95177.97
2023-03-13T19:18:03.917Z,95176.19
2023-03-13T19:20:34.153Z,95175.09
2023-03-13T19:23:02.629Z,95181.09
2023-03-13T19:25:31.084Z,95167.28
2023-03-13T19:27:59.960Z,95172.97
2023-03-13T19:30:29.136Z,95163.06
2023-03-13T19:32:57.778Z,95155.28
2023-03-13T19:35:26.245Z,95152.72
2023-03-13T19:37:56.013Z,95146.38
2023-03-13T19:40:28.712Z,95140.94
2023-03-13T19:42:57.263Z,95143.41
2023-03-13T19:45:26.470Z,95139.00
2023-03-13T19:47:54.968Z,95141.50
2023-03-13T19:50:27.633Z,95148.59
2023-03-13T19:52:57.648Z,95152.16
2023-03-13T19:55:26.162Z,95150.72
2023-03-13T19:57:54.668Z,95153.09
2023-03-13T20:00:31.865Z,95158.84
2023-03-13T20:03:00.435Z,95160.84
2023-03-13T20:05:29.252Z,95160.53
2023-03-13T20:07:59.205Z,95163.94
2023-03-13T20:10:27.792Z,95153.53
2023-03-13T20:12:56.252Z,95152.28
2023-03-13T20:15:25.275Z,95155.75
2023-03-13T20:17:54.045Z,95146.19
2023-03-13T20:20:22.707Z,95150.81
2023-03-13T20:22:51.419Z,95155.19
2023-03-13T20:25:24.106Z,95157.19
2023-03-13T20:27:53.563Z,95157.63
2023-03-13T20:30:23.037Z,95160.78
2023-03-13T20:32:59.345Z,95159.81
2023-03-13T20:35:33.234Z,95163.38
2023-03-13T20:38:01.886Z,95171.28
2023-03-13T20:40:31.804Z,95165.38
2023-03-13T20:43:01.035Z,95158.38
2023-03-13T20:45:31.025Z,95175.41
2023-03-13T20:47:59.946Z,95170.91
2023-03-13T20:50:29.046Z,95165.44
2023-03-13T20:52:57.576Z,95187.53
2023-03-13T20:55:26.091Z,95280.25
2023-03-13T20:57:55.855Z,95263.75
2023-03-13T21:00:28.569Z,95253.59
2023-03-13T21:02:57.416Z,95279.22
2023-03-13T21:05:26.130Z,95262.47
2023-03-13T21:07:54.711Z,95278.88
2023-03-13T21:10:23.622Z,95260.81
2023-03-13T21:12:52.225Z,95242.09
2023-03-13T21:15:22.431Z,95247.44
2023-03-13T21:17:50.793Z,95237.69
2023-03-13T21:20:19.433Z,95236.50
2023-03-13T21:22:48.365Z,95228.63
2023-03-13T21:25:17.256Z,95226.22
2023-03-13T21:27:49.424Z,95238.81
2023-03-13T21:30:20.343Z,95250.59
2023-03-13T21:32:50.231Z,95276.13
2023-03-13T21:35:19.167Z,95300.31
2023-03-13T21:37:47.657Z,95339.81
2023-03-13T21:40:16.677Z,95404.09
2023-03-13T21:42:45.210Z,95431.25
2023-03-13T21:45:13.936Z,95421.00
2023-03-13T21:47:42.399Z,95439.34
2023-03-13T21:50:14.367Z,95453.94
2023-03-13T21:52:42.928Z,95476.25
2023-03-13T21:55:14.596Z,95494.44
2023-03-13T21:57:43.276Z,95506.56
2023-03-13T22:00:14.196Z,95520.69
2023-03-13T22:02:43.435Z,95510.97
2023-03-13T22:05:13.626Z,95490.19
2023-03-13T22:07:42.068Z,95475.38
2023-03-13T22:10:12.831Z,95469.56
2023-03-13T22:12:41.414Z,95458.44
2023-03-13T22:15:12.353Z,95441.09
2023-03-13T22:17:40.837Z,95429.25
2023-03-13T22:20:12.997Z,95419.78
2023-03-13T22:22:41.477Z,95416.97
2023-03-13T22:25:11.052Z,95442.72
2023-03-13T22:27:39.656Z,95458.31
2023-03-13T22:30:10.405Z,95471.31
2023-03-13T22:32:39.340Z,95482.25
2023-03-13T22:35:09.888Z,95481.06
2023-03-13T22:37:40.076Z,95470.25
2023-03-13T22:40:10.019Z,95464.69
2023-03-13T22:42:38.463Z,95460.41
2023-03-13T22:45:08.542Z,95440.63
2023-03-13T22:47:37.156Z,95422.78
2023-03-13T22:50:06.656Z,95381.25
2023-03-13T22:52:35.158Z,95374.84
2023-03-13T22:55:06.200Z,95369.06
2023-03-13T22:57:34.966Z,95387.66
2023-03-13T23:00:03.538Z,95384.72
2023-03-13T23:02:32.468Z,95368.19
2023-03-13T23:05:01.370Z,95366.13
2023-03-13T23:07:32.443Z,95355.09
2023-03-13T23:10:01.110Z,95366.69
2023-03-13T23:12:31.075Z,95370.13
2023-03-13T23:15:02.128Z,95393.84
2023-03-13T23:17:33.588Z,95398.13
2023-03-13T23:20:02.380Z,95402.75
2023-03-13T23:22:33.006Z,95410.50
2023-03-13T23:25:02.337Z,95420.63
2023-03-13T23:27:33.127Z,95425.22
2023-03-13T23:30:04.302Z,95407.59
2023-03-13T23:32:37.038Z,95400.50
2023-03-13T23:35:07.285Z,95380.09
2023-03-13T23:37:36.697Z,95365.94
2023-03-13T23:40:10.586Z,95368.81
2023-03-13T23:42:40.807Z,95351.56
2023-03-13T23:45:10.216Z,95338.88
2023-03-13T23:47:39.218Z,95316.94
2023-03-13T23:50:08.410Z,95298.91
2023-03-13T23:52:37.195Z,95291.72
2023-03-13T23:55:07.544Z,95281.59
2023-03-13T23:57:37.684Z,95280.22
